sensor_id;sensor_type;location;lat;lon;timestamp;P1;durP1;ratioP1;P2;durP2;ratioP2
12420;SDS011;6275;43.688;1.408;2022-09-03T00:00:26;0.10;;;0.10;;
12420;SDS011;6275;43.688;1.408;2022-09-03T00:05:36;0.10;;;0.10;;
12420;SDS011;6275;43.688;1.408;2022-09-03T00:08:09;0.10;;;0.10;;
12420;SDS011;6275;43.688;1.408;2022-09-03T00:13:49;0.10;;;0.10;;
12420;SDS011;6275;43.688;1.408;2022-09-03T00:16:17;0.10;;;0.10;;
12420;SDS011;6275;43.688;1.408;2022-09-03T00:18:49;0.00;;;0.00;;
12420;SDS011;6275;43.688;1.408;2022-09-03T00:21:40;0.10;;;0.10;;
12420;SDS011;6275;43.688;1.408;2022-09-03T00:24:13;0.10;;;0.10;;
12420;SDS011;6275;43.688;1.408;2022-09-03T00:26:46;0.10;;;0.10;;
12420;SDS011;6275;43.688;1.408;2022-09-03T00:29:22;0.10;;;0.10;;
12420;SDS011;6275;43.688;1.408;2022-09-03T00:31:55;0.10;;;0.10;;
12420;SDS011;6275;43.688;1.408;2022-09-03T00:37:06;0.10;;;0.10;;
12420;SDS011;6275;43.688;1.408;2022-09-03T00:39:40;0.10;;;0.10;;
12420;SDS011;6275;43.688;1.408;2022-09-03T00:55:51;0.10;;;0.10;;
12420;SDS011;6275;43.688;1.408;2022-09-03T01:01:09;0.00;;;0.00;;
12420;SDS011;6275;43.688;1.408;2022-09-03T01:07:08;0.03;;;0.03;;
12420;SDS011;6275;43.688;1.408;2022-09-03T01:10:06;0.00;;;0.00;;
12420;SDS011;6275;43.688;1.408;2022-09-03T01:15:34;0.00;;;0.00;;
12420;SDS011;6275;43.688;1.408;2022-09-03T01:32:29;0.00;;;0.00;;
12420;SDS011;6275;43.688;1.408;2022-09-03T01:46:42;0.10;;;0.10;;
12420;SDS011;6275;43.688;1.408;2022-09-03T01:49:24;0.00;;;0.00;;
12420;SDS011;6275;43.688;1.408;2022-09-03T01:52:33;0.00;;;0.00;;
12420;SDS011;6275;43.688;1.408;2022-09-03T01:55:17;0.00;;;0.00;;
12420;SDS011;6275;43.688;1.408;2022-09-03T02:00:21;0.00;;;0.00;;
12420;SDS011;6275;43.688;1.408;2022-09-03T02:02:51;0.00;;;0.00;;
12420;SDS011;6275;43.688;1.408;2022-09-03T02:05:22;0.00;;;0.00;;
12420;SDS011;6275;43.688;1.408;2022-09-03T02:10:48;0.00;;;0.00;;
12420;SDS011;6275;43.688;1.408;2022-09-03T02:15:47;0.00;;;0.00;;
12420;SDS011;6275;43.688;1.408;2022-09-03T02:18:19;0.00;;;0.00;;
12420;SDS011;6275;43.688;1.408;2022-09-03T02:20:51;0.00;;;0.00;;
12420;SDS011;6275;43.688;1.408;2022-09-03T02:23:20;0.00;;;0.00;;
12420;SDS011;6275;43.688;1.408;2022-09-03T02:25:57;0.00;;;0.00;;
12420;SDS011;6275;43.688;1.408;2022-09-03T02:28:29;0.10;;;0.10;;
12420;SDS011;6275;43.688;1.408;2022-09-03T02:30:57;0.00;;;0.00;;
12420;SDS011;6275;43.688;1.408;2022-09-03T02:33:25;0.00;;;0.00;;
12420;SDS011;6275;43.688;1.408;2022-09-03T02:35:53;0.00;;;0.00;;
12420;SDS011;6275;43.688;1.408;2022-09-03T02:38:21;0.00;;;0.00;;
12420;SDS011;6275;43.688;1.408;2022-09-03T02:40:51;0.00;;;0.00;;
12420;SDS011;6275;43.688;1.408;2022-09-03T02:43:23;0.00;;;0.00;;
12420;SDS011;6275;43.688;1.408;2022-09-03T02:46:00;0.00;;;0.00;;
12420;SDS011;6275;43.688;1.408;2022-09-03T02:48:29;0.00;;;0.00;;
12420;SDS011;6275;43.688;1.408;2022-09-03T02:50:56;0.00;;;0.00;;
12420;SDS011;6275;43.688;1.408;2022-09-03T02:53:23;0.00;;;0.00;;
12420;SDS011;6275;43.688;1.408;2022-09-03T02:55:50;0.00;;;0.00;;
12420;SDS011;6275;43.688;1.408;2022-09-03T02:58:17;0.00;;;0.00;;
12420;SDS011;6275;43.688;1.408;2022-09-03T03:00:44;0.00;;;0.00;;
12420;SDS011;6275;43.688;1.408;2022-09-03T03:03:11;0.00;;;0.00;;
12420;SDS011;6275;43.688;1.408;2022-09-03T03:05:42;0.00;;;0.00;;
12420;SDS011;6275;43.688;1.408;2022-09-03T03:08:12;0.00;;;0.00;;
12420;SDS011;6275;43.688;1.408;2022-09-03T03:10:45;0.00;;;0.00;;
12420;SDS011;6275;43.688;1.408;2022-09-03T03:13:13;0.10;;;0.10;;
12420;SDS011;6275;43.688;1.408;2022-09-03T03:15:41;0.00;;;0.00;;
12420;SDS011;6275;43.688;1.408;2022-09-03T03:18:09;0.00;;;0.00;;
12420;SDS011;6275;43.688;1.408;2022-09-03T03:20:40;0.00;;;0.00;;
12420;SDS011;6275;43.688;1.408;2022-09-03T03:23:07;0.00;;;0.00;;
12420;SDS011;6275;43.688;1.408;2022-09-03T03:25:36;0.00;;;0.00;;
12420;SDS011;6275;43.688;1.408;2022-09-03T03:28:04;0.00;;;0.00;;
12420;SDS011;6275;43.688;1.408;2022-09-03T03:30:32;0.00;;;0.00;;
12420;SDS011;6275;43.688;1.408;2022-09-03T03:32:59;0.00;;;0.00;;
12420;SDS011;6275;43.688;1.408;2022-09-03T03:35:26;0.00;;;0.00;;
12420;SDS011;6275;43.688;1.408;2022-09-03T03:37:56;0.00;;;0.00;;
12420;SDS011;6275;43.688;1.408;2022-09-03T03:40:24;0.00;;;0.00;;
12420;SDS011;6275;43.688;1.408;2022-09-03T03:42:51;0.00;;;0.00;;
12420;SDS011;6275;43.688;1.408;2022-09-03T03:45:19;0.00;;;0.00;;
12420;SDS011;6275;43.688;1.408;2022-09-03T03:47:46;0.10;;;0.10;;
12420;SDS011;6275;43.688;1.408;2022-09-03T03:50:13;0.00;;;0.00;;
12420;SDS011;6275;43.688;1.408;2022-09-03T03:52:40;0.10;;;0.10;;
12420;SDS011;6275;43.688;1.408;2022-09-03T03:55:07;0.00;;;0.00;;
12420;SDS011;6275;43.688;1.408;2022-09-03T03:57:34;0.00;;;0.00;;
12420;SDS011;6275;43.688;1.408;2022-09-03T04:00:02;0.00;;;0.00;;
12420;SDS011;6275;43.688;1.408;2022-09-03T04:02:29;0.00;;;0.00;;
12420;SDS011;6275;43.688;1.408;2022-09-03T04:04:59;0.00;;;0.00;;
12420;SDS011;6275;43.688;1.408;2022-09-03T04:07:26;0.00;;;0.00;;
12420;SDS011;6275;43.688;1.408;2022-09-03T04:09:53;0.00;;;0.00;;
12420;SDS011;6275;43.688;1.408;2022-09-03T04:12:19;0.00;;;0.00;;
12420;SDS011;6275;43.688;1.408;2022-09-03T04:14:46;0.00;;;0.00;;
12420;SDS011;6275;43.688;1.408;2022-09-03T04:17:13;0.00;;;0.00;;
12420;SDS011;6275;43.688;1.408;2022-09-03T04:19:40;0.00;;;0.00;;
12420;SDS011;6275;43.688;1.408;2022-09-03T04:22:07;0.00;;;0.00;;
12420;SDS011;6275;43.688;1.408;2022-09-03T04:24:34;0.03;;;0.03;;
12420;SDS011;6275;43.688;1.408;2022-09-03T04:27:01;0.00;;;0.00;;
12420;SDS011;6275;43.688;1.408;2022-09-03T04:29:28;0.00;;;0.00;;
12420;SDS011;6275;43.688;1.408;2022-09-03T04:31:57;0.00;;;0.00;;
12420;SDS011;6275;43.688;1.408;2022-09-03T04:34:42;0.00;;;0.00;;
12420;SDS011;6275;43.688;1.408;2022-09-03T04:37:09;0.00;;;0.00;;
12420;SDS011;6275;43.688;1.408;2022-09-03T04:39:36;0.00;;;0.00;;
12420;SDS011;6275;43.688;1.408;2022-09-03T04:42:03;0.00;;;0.00;;
12420;SDS011;6275;43.688;1.408;2022-09-03T04:44:30;0.00;;;0.00;;
12420;SDS011;6275;43.688;1.408;2022-09-03T04:46:57;0.00;;;0.00;;
12420;SDS011;6275;43.688;1.408;2022-09-03T04:49:24;0.00;;;0.00;;
12420;SDS011;6275;43.688;1.408;2022-09-03T04:51:51;0.00;;;0.00;;
12420;SDS011;6275;43.688;1.408;2022-09-03T04:54:18;0.00;;;0.00;;
12420;SDS011;6275;43.688;1.408;2022-09-03T04:56:45;0.00;;;0.00;;
12420;SDS011;6275;43.688;1.408;2022-09-03T04:59:11;0.00;;;0.00;;
12420;SDS011;6275;43.688;1.408;2022-09-03T05:01:39;0.00;;;0.00;;
12420;SDS011;6275;43.688;1.408;2022-09-03T05:04:06;0.00;;;0.00;;
12420;SDS011;6275;43.688;1.408;2022-09-03T05:06:34;0.10;;;0.10;;
12420;SDS011;6275;43.688;1.408;2022-09-03T05:09:03;0.10;;;0.10;;
12420;SDS011;6275;43.688;1.408;2022-09-03T05:11:31;0.10;;;0.10;;
12420;SDS011;6275;43.688;1.408;2022-09-03T05:13:58;0.10;;;0.10;;
12420;SDS011;6275;43.688;1.408;2022-09-03T05:16:26;0.00;;;0.00;;
12420;SDS011;6275;43.688;1.408;2022-09-03T05:18:56;0.00;;;0.00;;
12420;SDS011;6275;43.688;1.408;2022-09-03T05:21:25;0.10;;;0.10;;
12420;SDS011;6275;43.688;1.408;2022-09-03T05:23:53;0.10;;;0.10;;
12420;SDS011;6275;43.688;1.408;2022-09-03T05:26:24;0.00;;;0.00;;
12420;SDS011;6275;43.688;1.408;2022-09-03T05:28:54;0.00;;;0.00;;
12420;SDS011;6275;43.688;1.408;2022-09-03T05:31:23;0.00;;;0.00;;
12420;SDS011;6275;43.688;1.408;2022-09-03T05:33:52;0.00;;;0.00;;
12420;SDS011;6275;43.688;1.408;2022-09-03T05:36:23;0.00;;;0.00;;
12420;SDS011;6275;43.688;1.408;2022-09-03T05:38:52;0.00;;;0.00;;
12420;SDS011;6275;43.688;1.408;2022-09-03T05:41:20;0.00;;;0.00;;
12420;SDS011;6275;43.688;1.408;2022-09-03T05:43:48;0.10;;;0.10;;
12420;SDS011;6275;43.688;1.408;2022-09-03T05:46:25;0.00;;;0.00;;
12420;SDS011;6275;43.688;1.408;2022-09-03T05:48:59;0.00;;;0.00;;
12420;SDS011;6275;43.688;1.408;2022-09-03T05:51:27;0.00;;;0.00;;
12420;SDS011;6275;43.688;1.408;2022-09-03T05:53:56;0.00;;;0.00;;
12420;SDS011;6275;43.688;1.408;2022-09-03T05:56:24;0.00;;;0.00;;
12420;SDS011;6275;43.688;1.408;2022-09-03T05:58:53;0.00;;;0.00;;
12420;SDS011;6275;43.688;1.408;2022-09-03T06:01:23;0.00;;;0.00;;
12420;SDS011;6275;43.688;1.408;2022-09-03T06:06:37;0.00;;;0.00;;
12420;SDS011;6275;43.688;1.408;2022-09-03T06:09:06;0.00;;;0.00;;
12420;SDS011;6275;43.688;1.408;2022-09-03T06:11:36;0.00;;;0.00;;
12420;SDS011;6275;43.688;1.408;2022-09-03T06:14:05;0.00;;;0.00;;
12420;SDS011;6275;43.688;1.408;2022-09-03T06:16:36;0.00;;;0.00;;
12420;SDS011;6275;43.688;1.408;2022-09-03T06:19:05;0.00;;;0.00;;
12420;SDS011;6275;43.688;1.408;2022-09-03T06:21:38;0.00;;;0.00;;
12420;SDS011;6275;43.688;1.408;2022-09-03T06:24:11;0.00;;;0.00;;
12420;SDS011;6275;43.688;1.408;2022-09-03T06:26:40;0.00;;;0.00;;
12420;SDS011;6275;43.688;1.408;2022-09-03T06:29:08;0.00;;;0.00;;
12420;SDS011;6275;43.688;1.408;2022-09-03T06:31:36;0.00;;;0.00;;
12420;SDS011;6275;43.688;1.408;2022-09-03T06:34:04;0.00;;;0.00;;
12420;SDS011;6275;43.688;1.408;2022-09-03T06:36:31;0.00;;;0.00;;
12420;SDS011;6275;43.688;1.408;2022-09-03T06:38:59;0.00;;;0.00;;
12420;SDS011;6275;43.688;1.408;2022-09-03T06:41:27;0.00;;;0.00;;
12420;SDS011;6275;43.688;1.408;2022-09-03T06:43:59;0.00;;;0.00;;
12420;SDS011;6275;43.688;1.408;2022-09-03T06:46:32;0.00;;;0.00;;
12420;SDS011;6275;43.688;1.408;2022-09-03T06:49:00;0.00;;;0.00;;
12420;SDS011;6275;43.688;1.408;2022-09-03T06:51:28;0.00;;;0.00;;
12420;SDS011;6275;43.688;1.408;2022-09-03T06:53:59;0.00;;;0.00;;
12420;SDS011;6275;43.688;1.408;2022-09-03T06:56:26;0.00;;;0.00;;
12420;SDS011;6275;43.688;1.408;2022-09-03T06:58:58;0.00;;;0.00;;
12420;SDS011;6275;43.688;1.408;2022-09-03T07:01:26;0.00;;;0.00;;
12420;SDS011;6275;43.688;1.408;2022-09-03T07:03:59;0.00;;;0.00;;
12420;SDS011;6275;43.688;1.408;2022-09-03T07:06:28;0.10;;;0.10;;
12420;SDS011;6275;43.688;1.408;2022-09-03T07:08:56;0.10;;;0.10;;
12420;SDS011;6275;43.688;1.408;2022-09-03T07:11:25;0.10;;;0.10;;
12420;SDS011;6275;43.688;1.408;2022-09-03T07:13:54;0.00;;;0.00;;
12420;SDS011;6275;43.688;1.408;2022-09-03T07:16:23;0.00;;;0.00;;
12420;SDS011;6275;43.688;1.408;2022-09-03T07:18:50;0.00;;;0.00;;
12420;SDS011;6275;43.688;1.408;2022-09-03T07:21:22;0.00;;;0.00;;
12420;SDS011;6275;43.688;1.408;2022-09-03T07:23:50;0.10;;;0.10;;
12420;SDS011;6275;43.688;1.408;2022-09-03T07:26:18;0.00;;;0.00;;
12420;SDS011;6275;43.688;1.408;2022-09-03T07:28:46;0.00;;;0.00;;
12420;SDS011;6275;43.688;1.408;2022-09-03T07:31:15;0.10;;;0.10;;
12420;SDS011;6275;43.688;1.408;2022-09-03T07:33:45;0.00;;;0.00;;
12420;SDS011;6275;43.688;1.408;2022-09-03T07:36:13;0.10;;;0.10;;
12420;SDS011;6275;43.688;1.408;2022-09-03T07:38:42;0.10;;;0.10;;
12420;SDS011;6275;43.688;1.408;2022-09-03T07:41:11;0.10;;;0.10;;
12420;SDS011;6275;43.688;1.408;2022-09-03T07:43:53;0.10;;;0.10;;
12420;SDS011;6275;43.688;1.408;2022-09-03T07:46:21;0.10;;;0.10;;
12420;SDS011;6275;43.688;1.408;2022-09-03T07:48:50;0.10;;;0.10;;
12420;SDS011;6275;43.688;1.408;2022-09-03T07:51:18;0.10;;;0.10;;
12420;SDS011;6275;43.688;1.408;2022-09-03T07:53:47;0.10;;;0.10;;
12420;SDS011;6275;43.688;1.408;2022-09-03T07:56:14;0.10;;;0.10;;
12420;SDS011;6275;43.688;1.408;2022-09-03T07:58:42;0.10;;;0.10;;
12420;SDS011;6275;43.688;1.408;2022-09-03T08:01:10;0.10;;;0.10;;
12420;SDS011;6275;43.688;1.408;2022-09-03T08:03:41;0.10;;;0.10;;
12420;SDS011;6275;43.688;1.408;2022-09-03T08:06:09;0.10;;;0.10;;
12420;SDS011;6275;43.688;1.408;2022-09-03T08:08:37;0.10;;;0.10;;
12420;SDS011;6275;43.688;1.408;2022-09-03T08:11:09;0.10;;;0.10;;
12420;SDS011;6275;43.688;1.408;2022-09-03T08:13:40;0.10;;;0.10;;
12420;SDS011;6275;43.688;1.408;2022-09-03T08:16:10;0.10;;;0.10;;
12420;SDS011;6275;43.688;1.408;2022-09-03T08:18:37;0.10;;;0.10;;
12420;SDS011;6275;43.688;1.408;2022-09-03T08:21:09;0.10;;;0.10;;
12420;SDS011;6275;43.688;1.408;2022-09-03T08:23:39;0.10;;;0.10;;
12420;SDS011;6275;43.688;1.408;2022-09-03T08:26:07;0.10;;;0.10;;
12420;SDS011;6275;43.688;1.408;2022-09-03T08:28:35;0.10;;;0.10;;
12420;SDS011;6275;43.688;1.408;2022-09-03T08:31:04;0.10;;;0.10;;
12420;SDS011;6275;43.688;1.408;2022-09-03T08:33:31;0.10;;;0.10;;
12420;SDS011;6275;43.688;1.408;2022-09-03T08:36:03;0.10;;;0.10;;
12420;SDS011;6275;43.688;1.408;2022-09-03T08:38:31;0.10;;;0.10;;
12420;SDS011;6275;43.688;1.408;2022-09-03T08:41:05;0.10;;;0.10;;
12420;SDS011;6275;43.688;1.408;2022-09-03T08:43:34;0.10;;;0.10;;
12420;SDS011;6275;43.688;1.408;2022-09-03T08:46:03;0.10;;;0.10;;
12420;SDS011;6275;43.688;1.408;2022-09-03T08:48:30;0.10;;;0.10;;
12420;SDS011;6275;43.688;1.408;2022-09-03T08:50:59;0.10;;;0.10;;
12420;SDS011;6275;43.688;1.408;2022-09-03T08:53:47;0.10;;;0.10;;
12420;SDS011;6275;43.688;1.408;2022-09-03T08:56:19;0.10;;;0.10;;
12420;SDS011;6275;43.688;1.408;2022-09-03T08:58:47;0.10;;;0.10;;
12420;SDS011;6275;43.688;1.408;2022-09-03T09:01:27;0.10;;;0.10;;
12420;SDS011;6275;43.688;1.408;2022-09-03T09:06:54;0.20;;;0.20;;
12420;SDS011;6275;43.688;1.408;2022-09-03T09:16:53;0.20;;;0.20;;
12420;SDS011;6275;43.688;1.408;2022-09-03T09:19:48;0.15;;;0.15;;
12420;SDS011;6275;43.688;1.408;2022-09-03T09:24:50;0.20;;;0.20;;
12420;SDS011;6275;43.688;1.408;2022-09-03T09:27:20;0.20;;;0.20;;
12420;SDS011;6275;43.688;1.408;2022-09-03T09:29:49;0.20;;;0.20;;
12420;SDS011;6275;43.688;1.408;2022-09-03T09:32:18;0.20;;;0.20;;
12420;SDS011;6275;43.688;1.408;2022-09-03T09:34:47;0.20;;;0.20;;
12420;SDS011;6275;43.688;1.408;2022-09-03T09:37:17;0.17;;;0.17;;
12420;SDS011;6275;43.688;1.408;2022-09-03T09:39:58;0.10;;;0.10;;
12420;SDS011;6275;43.688;1.408;2022-09-03T09:42:26;0.10;;;0.10;;
12420;SDS011;6275;43.688;1.408;2022-09-03T09:44:56;0.20;;;0.20;;
12420;SDS011;6275;43.688;1.408;2022-09-03T09:47:29;0.10;;;0.10;;
12420;SDS011;6275;43.688;1.408;2022-09-03T09:49:59;0.10;;;0.10;;
12420;SDS011;6275;43.688;1.408;2022-09-03T09:52:28;0.10;;;0.10;;
12420;SDS011;6275;43.688;1.408;2022-09-03T09:55:07;0.10;;;0.10;;
12420;SDS011;6275;43.688;1.408;2022-09-03T09:57:35;0.10;;;0.10;;
12420;SDS011;6275;43.688;1.408;2022-09-03T10:00:08;0.20;;;0.20;;
12420;SDS011;6275;43.688;1.408;2022-09-03T10:02:38;0.10;;;0.10;;
12420;SDS011;6275;43.688;1.408;2022-09-03T10:05:11;0.10;;;0.10;;
12420;SDS011;6275;43.688;1.408;2022-09-03T10:07:39;0.10;;;0.10;;
12420;SDS011;6275;43.688;1.408;2022-09-03T10:10:13;0.10;;;0.10;;
12420;SDS011;6275;43.688;1.408;2022-09-03T10:17:59;0.10;;;0.10;;
12420;SDS011;6275;43.688;1.408;2022-09-03T10:20:44;0.13;;;0.13;;
12420;SDS011;6275;43.688;1.408;2022-09-03T10:23:17;0.10;;;0.10;;
12420;SDS011;6275;43.688;1.408;2022-09-03T10:25:50;0.10;;;0.10;;
12420;SDS011;6275;43.688;1.408;2022-09-03T10:28:20;0.10;;;0.10;;
12420;SDS011;6275;43.688;1.408;2022-09-03T10:31:11;0.10;;;0.10;;
12420;SDS011;6275;43.688;1.408;2022-09-03T10:33:43;0.10;;;0.10;;
12420;SDS011;6275;43.688;1.408;2022-09-03T10:36:19;0.17;;;0.17;;
12420;SDS011;6275;43.688;1.408;2022-09-03T10:38:52;0.10;;;0.10;;
12420;SDS011;6275;43.688;1.408;2022-09-03T10:46:38;0.10;;;0.10;;
12420;SDS011;6275;43.688;1.408;2022-09-03T10:49:19;0.10;;;0.10;;
12420;SDS011;6275;43.688;1.408;2022-09-03T10:51:55;0.10;;;0.10;;
12420;SDS011;6275;43.688;1.408;2022-09-03T10:54:34;0.10;;;0.10;;
12420;SDS011;6275;43.688;1.408;2022-09-03T10:57:23;0.10;;;0.10;;
12420;SDS011;6275;43.688;1.408;2022-09-03T11:07:38;0.10;;;0.10;;
12420;SDS011;6275;43.688;1.408;2022-09-03T11:10:49;0.13;;;0.13;;
12420;SDS011;6275;43.688;1.408;2022-09-03T11:15:28;0.10;;;0.10;;
12420;SDS011;6275;43.688;1.408;2022-09-03T11:17:59;0.10;;;0.10;;
12420;SDS011;6275;43.688;1.408;2022-09-03T11:20:27;0.10;;;0.10;;
12420;SDS011;6275;43.688;1.408;2022-09-03T11:22:59;0.10;;;0.10;;
12420;SDS011;6275;43.688;1.408;2022-09-03T11:25:31;0.10;;;0.10;;
12420;SDS011;6275;43.688;1.408;2022-09-03T11:30:28;0.10;;;0.10;;
12420;SDS011;6275;43.688;1.408;2022-09-03T11:33:05;0.10;;;0.10;;
12420;SDS011;6275;43.688;1.408;2022-09-03T11:38:01;0.13;;;0.13;;
12420;SDS011;6275;43.688;1.408;2022-09-03T11:40:36;0.10;;;0.10;;
12420;SDS011;6275;43.688;1.408;2022-09-03T11:43:24;0.10;;;0.10;;
12420;SDS011;6275;43.688;1.408;2022-09-03T11:48:43;0.10;;;0.10;;
12420;SDS011;6275;43.688;1.408;2022-09-03T11:56:49;0.10;;;0.10;;
12420;SDS011;6275;43.688;1.408;2022-09-03T11:59:18;0.10;;;0.10;;
12420;SDS011;6275;43.688;1.408;2022-09-03T12:01:56;0.20;;;0.20;;
12420;SDS011;6275;43.688;1.408;2022-09-03T12:04:34;0.10;;;0.10;;
12420;SDS011;6275;43.688;1.408;2022-09-03T12:14:57;0.20;;;0.20;;
12420;SDS011;6275;43.688;1.408;2022-09-03T12:20:15;0.15;;;0.15;;
12420;SDS011;6275;43.688;1.408;2022-09-03T12:22:48;0.20;;;0.20;;
12420;SDS011;6275;43.688;1.408;2022-09-03T12:25:16;0.20;;;0.20;;
12420;SDS011;6275;43.688;1.408;2022-09-03T12:27:43;0.20;;;0.20;;
12420;SDS011;6275;43.688;1.408;2022-09-03T12:30:15;0.15;;;0.15;;
12420;SDS011;6275;43.688;1.408;2022-09-03T12:32:43;0.10;;;0.10;;
12420;SDS011;6275;43.688;1.408;2022-09-03T12:35:16;0.10;;;0.10;;
12420;SDS011;6275;43.688;1.408;2022-09-03T12:38:04;0.20;;;0.20;;
12420;SDS011;6275;43.688;1.408;2022-09-03T12:40:39;0.10;;;0.10;;
12420;SDS011;6275;43.688;1.408;2022-09-03T12:43:28;0.15;;;0.15;;
12420;SDS011;6275;43.688;1.408;2022-09-03T12:46:04;0.10;;;0.10;;
12420;SDS011;6275;43.688;1.408;2022-09-03T12:48:45;0.10;;;0.10;;
12420;SDS011;6275;43.688;1.408;2022-09-03T12:51:33;0.10;;;0.10;;
12420;SDS011;6275;43.688;1.408;2022-09-03T12:54:22;0.10;;;0.10;;
12420;SDS011;6275;43.688;1.408;2022-09-03T12:56:52;0.20;;;0.20;;
12420;SDS011;6275;43.688;1.408;2022-09-03T12:59:20;0.20;;;0.20;;
12420;SDS011;6275;43.688;1.408;2022-09-03T13:01:50;0.10;;;0.10;;
12420;SDS011;6275;43.688;1.408;2022-09-03T13:04:22;0.10;;;0.10;;
12420;SDS011;6275;43.688;1.408;2022-09-03T13:06:55;0.20;;;0.20;;
12420;SDS011;6275;43.688;1.408;2022-09-03T13:09:26;0.10;;;0.10;;
12420;SDS011;6275;43.688;1.408;2022-09-03T13:11:55;0.10;;;0.10;;
12420;SDS011;6275;43.688;1.408;2022-09-03T13:14:25;0.63;;;0.63;;
12420;SDS011;6275;43.688;1.408;2022-09-03T13:22:45;0.10;;;0.10;;
12420;SDS011;6275;43.688;1.408;2022-09-03T13:25:27;0.15;;;0.15;;
12420;SDS011;6275;43.688;1.408;2022-09-03T13:33:31;0.10;;;0.10;;
12420;SDS011;6275;43.688;1.408;2022-09-03T13:36:02;0.10;;;0.10;;
12420;SDS011;6275;43.688;1.408;2022-09-03T13:38:50;0.10;;;0.10;;
12420;SDS011;6275;43.688;1.408;2022-09-03T13:41:30;0.10;;;0.10;;
12420;SDS011;6275;43.688;1.408;2022-09-03T13:46:32;0.10;;;0.10;;
12420;SDS011;6275;43.688;1.408;2022-09-03T13:49:19;0.10;;;0.10;;
12420;SDS011;6275;43.688;1.408;2022-09-03T13:52:07;0.10;;;0.10;;
12420;SDS011;6275;43.688;1.408;2022-09-03T13:54:44;0.10;;;0.10;;
12420;SDS011;6275;43.688;1.408;2022-09-03T14:00:04;0.10;;;0.10;;
12420;SDS011;6275;43.688;1.408;2022-09-03T14:02:45;0.10;;;0.10;;
12420;SDS011;6275;43.688;1.408;2022-09-03T14:08:04;0.10;;;0.10;;
12420;SDS011;6275;43.688;1.408;2022-09-03T14:10:51;0.10;;;0.10;;
12420;SDS011;6275;43.688;1.408;2022-09-03T14:18:38;0.10;;;0.10;;
12420;SDS011;6275;43.688;1.408;2022-09-03T14:21:07;0.10;;;0.10;;
12420;SDS011;6275;43.688;1.408;2022-09-03T14:26:27;0.20;;;0.20;;
12420;SDS011;6275;43.688;1.408;2022-09-03T14:37:09;0.10;;;0.10;;
12420;SDS011;6275;43.688;1.408;2022-09-03T14:39:55;0.10;;;0.10;;
12420;SDS011;6275;43.688;1.408;2022-09-03T14:53:24;0.10;;;0.10;;
12420;SDS011;6275;43.688;1.408;2022-09-03T15:01:17;0.10;;;0.10;;
12420;SDS011;6275;43.688;1.408;2022-09-03T15:06:36;0.10;;;0.10;;
12420;SDS011;6275;43.688;1.408;2022-09-03T15:11:58;0.10;;;0.10;;
12420;SDS011;6275;43.688;1.408;2022-09-03T15:15:09;0.10;;;0.10;;
12420;SDS011;6275;43.688;1.408;2022-09-03T15:20:10;0.10;;;0.10;;
12420;SDS011;6275;43.688;1.408;2022-09-03T15:28:08;0.10;;;0.10;;
12420;SDS011;6275;43.688;1.408;2022-09-03T15:30:40;0.10;;;0.10;;
12420;SDS011;6275;43.688;1.408;2022-09-03T15:35:59;0.10;;;0.10;;
12420;SDS011;6275;43.688;1.408;2022-09-03T15:41:04;0.10;;;0.10;;
12420;SDS011;6275;43.688;1.408;2022-09-03T15:43:33;0.10;;;0.10;;
12420;SDS011;6275;43.688;1.408;2022-09-03T15:46:05;0.10;;;0.10;;
12420;SDS011;6275;43.688;1.408;2022-09-03T15:48:59;0.10;;;0.10;;
12420;SDS011;6275;43.688;1.408;2022-09-03T16:05:14;0.20;;;0.20;;
12420;SDS011;6275;43.688;1.408;2022-09-03T16:07:23;0.10;;;0.10;;
12420;SDS011;6275;43.688;1.408;2022-09-03T16:09:55;0.10;;;0.10;;
12420;SDS011;6275;43.688;1.408;2022-09-03T16:15:27;0.10;;;0.10;;
12420;SDS011;6275;43.688;1.408;2022-09-03T16:21:06;0.20;;;0.20;;
12420;SDS011;6275;43.688;1.408;2022-09-03T16:26:12;0.10;;;0.10;;
12420;SDS011;6275;43.688;1.408;2022-09-03T16:31:19;0.10;;;0.10;;
12420;SDS011;6275;43.688;1.408;2022-09-03T16:36:31;0.10;;;0.10;;
12420;SDS011;6275;43.688;1.408;2022-09-03T16:41:33;0.10;;;0.10;;
12420;SDS011;6275;43.688;1.408;2022-09-03T16:44:05;0.20;;;0.20;;
12420;SDS011;6275;43.688;1.408;2022-09-03T17:13:11;0.20;;;0.20;;
12420;SDS011;6275;43.688;1.408;2022-09-03T17:15:48;0.10;;;0.10;;
12420;SDS011;6275;43.688;1.408;2022-09-03T17:18:37;0.10;;;0.10;;
12420;SDS011;6275;43.688;1.408;2022-09-03T17:23:51;0.10;;;0.10;;
12420;SDS011;6275;43.688;1.408;2022-09-03T17:26:24;0.10;;;0.10;;
12420;SDS011;6275;43.688;1.408;2022-09-03T17:37:40;0.20;;;0.20;;
12420;SDS011;6275;43.688;1.408;2022-09-03T17:39:46;0.20;;;0.20;;
12420;SDS011;6275;43.688;1.408;2022-09-03T17:55:10;0.10;;;0.10;;
12420;SDS011;6275;43.688;1.408;2022-09-03T17:57:40;0.20;;;0.20;;
12420;SDS011;6275;43.688;1.408;2022-09-03T18:00:10;0.20;;;0.20;;
12420;SDS011;6275;43.688;1.408;2022-09-03T18:02:39;0.20;;;0.20;;
12420;SDS011;6275;43.688;1.408;2022-09-03T18:05:20;0.20;;;0.20;;
12420;SDS011;6275;43.688;1.408;2022-09-03T18:07:51;0.20;;;0.20;;
12420;SDS011;6275;43.688;1.408;2022-09-03T18:12:49;0.10;;;0.10;;
12420;SDS011;6275;43.688;1.408;2022-09-03T18:15:35;0.10;;;0.10;;
12420;SDS011;6275;43.688;1.408;2022-09-03T18:18:06;0.10;;;0.10;;
12420;SDS011;6275;43.688;1.408;2022-09-03T18:20:42;0.10;;;0.10;;
12420;SDS011;6275;43.688;1.408;2022-09-03T18:23:57;0.10;;;0.10;;
12420;SDS011;6275;43.688;1.408;2022-09-03T18:27:00;0.20;;;0.20;;
12420;SDS011;6275;43.688;1.408;2022-09-03T18:29:59;0.10;;;0.10;;
12420;SDS011;6275;43.688;1.408;2022-09-03T18:32:48;0.10;;;0.10;;
12420;SDS011;6275;43.688;1.408;2022-09-03T18:35:34;0.20;;;0.20;;
12420;SDS011;6275;43.688;1.408;2022-09-03T18:38:30;0.10;;;0.10;;
12420;SDS011;6275;43.688;1.408;2022-09-03T18:42:07;0.10;;;0.10;;
12420;SDS011;6275;43.688;1.408;2022-09-03T18:45:02;0.10;;;0.10;;
12420;SDS011;6275;43.688;1.408;2022-09-03T18:48:36;0.10;;;0.10;;
12420;SDS011;6275;43.688;1.408;2022-09-03T18:55:37;0.10;;;0.10;;
12420;SDS011;6275;43.688;1.408;2022-09-03T19:03:58;0.10;;;0.10;;
12420;SDS011;6275;43.688;1.408;2022-09-03T19:10:07;0.20;;;0.20;;
12420;SDS011;6275;43.688;1.408;2022-09-03T19:13:11;0.10;;;0.10;;
12420;SDS011;6275;43.688;1.408;2022-09-03T19:16:26;0.20;;;0.20;;
12420;SDS011;6275;43.688;1.408;2022-09-03T19:22:33;0.10;;;0.10;;
12420;SDS011;6275;43.688;1.408;2022-09-03T19:25:20;0.10;;;0.10;;
12420;SDS011;6275;43.688;1.408;2022-09-03T19:31:19;0.10;;;0.10;;
12420;SDS011;6275;43.688;1.408;2022-09-03T19:34:29;0.10;;;0.10;;
12420;SDS011;6275;43.688;1.408;2022-09-03T19:43:59;0.10;;;0.10;;
12420;SDS011;6275;43.688;1.408;2022-09-03T19:46:58;0.10;;;0.10;;
12420;SDS011;6275;43.688;1.408;2022-09-03T19:56:07;0.10;;;0.10;;
12420;SDS011;6275;43.688;1.408;2022-09-03T19:59:20;0.10;;;0.10;;
12420;SDS011;6275;43.688;1.408;2022-09-03T20:02:06;0.10;;;0.10;;
12420;SDS011;6275;43.688;1.408;2022-09-03T20:05:00;0.10;;;0.10;;
12420;SDS011;6275;43.688;1.408;2022-09-03T20:07:50;0.10;;;0.10;;
12420;SDS011;6275;43.688;1.408;2022-09-03T20:10:40;0.10;;;0.10;;
12420;SDS011;6275;43.688;1.408;2022-09-03T20:15:52;0.10;;;0.10;;
12420;SDS011;6275;43.688;1.408;2022-09-03T20:21:10;0.10;;;0.10;;
12420;SDS011;6275;43.688;1.408;2022-09-03T20:23:56;0.10;;;0.10;;
12420;SDS011;6275;43.688;1.408;2022-09-03T20:26:32;0.10;;;0.10;;
12420;SDS011;6275;43.688;1.408;2022-09-03T20:32:02;0.10;;;0.10;;
12420;SDS011;6275;43.688;1.408;2022-09-03T20:35:19;0.10;;;0.10;;
12420;SDS011;6275;43.688;1.408;2022-09-03T20:41:06;0.10;;;0.10;;
12420;SDS011;6275;43.688;1.408;2022-09-03T20:48:58;0.10;;;0.10;;
12420;SDS011;6275;43.688;1.408;2022-09-03T20:51:31;0.10;;;0.10;;
12420;SDS011;6275;43.688;1.408;2022-09-03T21:08:09;0.10;;;0.10;;
12420;SDS011;6275;43.688;1.408;2022-09-03T21:11:02;0.10;;;0.10;;
12420;SDS011;6275;43.688;1.408;2022-09-03T21:16:47;0.10;;;0.10;;
12420;SDS011;6275;43.688;1.408;2022-09-03T21:19:25;0.10;;;0.10;;
12420;SDS011;6275;43.688;1.408;2022-09-03T21:22:26;0.10;;;0.10;;
12420;SDS011;6275;43.688;1.408;2022-09-03T21:28:57;0.10;;;0.10;;
12420;SDS011;6275;43.688;1.408;2022-09-03T21:31:14;0.10;;;0.10;;